Time;durP1;ratioP1;P1;durP2;ratioP2;P2;SDS_P1;SDS_P2;PMS_P1;PMS_P2;Temp;Humidity;BMP_temperature;BMP_pressure;BME280_temperature;BME280_humidity;BME280_pressure;Samples;Min_cycle;Max_cycle;Signal;HPM_P1;HPM_P2
2022/06/27 00:00:25;;;;;;;3.10;1.33;;;;;;;20.35;63.90;95817.47;4860472;29;20042;-79
2022/06/27 00:02:51;;;;;;;2.78;1.08;;;;;;;20.22;63.98;95808.00;4860715;29;20076;-79
2022/06/27 00:05:18;;;;;;;2.95;1.15;;;;;;;20.31;63.76;95828.53;4860227;29;20048;-79
2022/06/27 00:07:45;;;;;;;3.45;1.30;;;;;;;20.25;63.65;95823.78;4860588;29;20046;-78
2022/06/27 00:10:12;;;;;;;1.20;1.00;;;;;;;20.37;64.49;95815.09;4860159;29;20053;-79
2022/06/27 00:12:40;;;;;;;4.30;1.20;;;;;;;20.34;64.01;95816.69;4860547;29;20054;-80
2022/06/27 00:15:08;;;;;;;2.10;1.17;;;;;;;20.31;64.21;95811.16;4860171;29;20137;-80
2022/06/27 00:17:35;;;;;;;1.85;1.30;;;;;;;20.31;64.76;95800.09;4860466;29;20494;-79
2022/06/27 00:20:02;;;;;;;1.33;1.13;;;;;;;20.23;64.56;95790.22;4860001;29;20402;-79
2022/06/27 00:22:29;;;;;;;2.88;1.27;;;;;;;20.18;64.73;95793.38;4860161;29;20494;-79
2022/06/27 00:24:55;;;;;;;1.92;1.30;;;;;;;20.23;64.76;95809.56;4860395;29;20072;-78
2022/06/27 00:27:22;;;;;;;3.25;1.10;;;;;;;20.20;64.72;95804.81;4859821;29;20084;-79
2022/06/27 00:29:50;;;;;;;1.75;1.30;;;;;;;20.17;65.18;95789.03;4860290;29;20045;-79
2022/06/27 00:32:17;;;;;;;9.73;1.55;;;;;;;20.10;65.52;95789.00;4859617;29;20049;-79
2022/06/27 00:34:44;;;;;;;3.03;1.35;;;;;;;20.07;65.77;95790.59;4861475;29;20048;-78
2022/06/27 00:37:11;;;;;;;2.00;1.30;;;;;;;20.01;66.15;95798.50;4862141;29;20072;-80
2022/06/27 00:39:37;;;;;;;3.63;1.60;;;;;;;20.00;65.93;95807.97;4861979;29;20057;-79
2022/06/27 00:42:04;;;;;;;1.58;1.40;;;;;;;20.05;66.18;95804.03;4860099;29;20045;-79
2022/06/27 00:44:35;;;;;;;1.63;1.30;;;;;;;20.06;65.78;95805.59;4861771;29;20524;-79
2022/06/27 00:47:04;;;;;;;1.73;1.40;;;;;;;20.00;66.32;95807.97;4860756;29;20052;-78
2022/06/27 00:49:31;;;;;;;2.38;1.60;;;;;;;19.92;66.46;95800.84;4861596;29;20046;-79
2022/06/27 00:51:57;;;;;;;4.22;1.60;;;;;;;19.87;66.91;95806.75;4861190;29;20053;-81
2022/06/27 00:54:25;;;;;;;4.30;1.63;;;;;;;19.81;66.94;95802.78;4858463;29;20046;-78
2022/06/27 00:56:53;;;;;;;2.10;1.65;;;;;;;19.76;67.56;95808.69;4860836;29;20045;-79
2022/06/27 00:59:20;;;;;;;2.28;1.70;;;;;;;19.73;67.73;95815.81;4860386;29;20049;-79
2022/06/27 01:01:46;;;;;;;2.70;1.73;;;;;;;19.71;67.96;95831.16;4860822;29;20045;-79
2022/06/27 01:04:15;;;;;;;5.57;1.85;;;;;;;19.79;67.79;95835.56;4859730;29;20050;-80
2022/06/27 01:06:41;;;;;;;2.45;1.70;;;;;;;19.80;67.91;95848.19;4860413;29;20052;-79
2022/06/27 01:09:08;;;;;;;1.77;1.40;;;;;;;19.83;67.17;95844.63;4859528;29;20061;-78
2022/06/27 01:11:35;;;;;;;2.30;1.92;;;;;;;19.92;67.37;95855.31;4860078;29;20045;-78
2022/06/27 01:14:02;;;;;;;2.72;1.67;;;;;;;19.97;67.68;95852.94;4859094;29;20056;-79
2022/06/27 01:16:29;;;;;;;2.10;1.63;;;;;;;20.01;68.61;95848.22;4859542;29;20054;-79
2022/06/27 01:18:56;;;;;;;2.38;1.70;;;;;;;20.02;68.92;95843.50;4859598;29;20049;-79
2022/06/27 01:21:25;;;;;;;3.58;1.70;;;;;;;20.05;69.78;95837.19;4858732;29;20045;-80
2022/06/27 01:23:53;;;;;;;2.45;1.90;;;;;;;20.08;70.47;95841.91;4858175;29;20049;-79
2022/06/27 01:26:21;;;;;;;2.25;1.65;;;;;;;20.03;69.30;95851.38;4858893;29;20106;-80
2022/06/27 01:28:48;;;;;;;1.92;1.60;;;;;;;20.01;69.24;95847.44;4859318;29;20053;-79
2022/06/27 01:31:16;;;;;;;2.45;1.63;;;;;;;20.01;69.60;95856.53;4858814;29;20055;-78
2022/06/27 01:33:42;;;;;;;4.78;1.90;;;;;;;19.94;69.09;95855.69;4858996;29;20045;-79
2022/06/27 01:39:02;;;;;;;2.83;1.65;;;;;;;19.86;71.16;95851.34;4824773;29;20105;-78
2022/06/27 01:41:29;;;;;;;2.20;1.80;;;;;;;19.80;70.28;95859.22;4858933;29;20057;-79
2022/06/27 01:43:56;;;;;;;2.20;1.92;;;;;;;19.76;70.77;95863.94;4858749;29;20057;-79
2022/06/27 01:46:22;;;;;;;2.30;1.63;;;;;;;19.72;71.62;95857.59;4858549;29;20045;-79
2022/06/27 01:48:49;;;;;;;1.75;1.50;;;;;;;19.70;71.83;95859.97;4858580;29;20050;-80
2022/06/27 01:51:17;;;;;;;2.08;1.67;;;;;;;19.70;71.69;95865.50;4858095;29;20045;-79
2022/06/27 01:53:43;;;;;;;3.00;2.13;;;;;;;19.67;71.95;95871.78;4857332;29;20045;-79
2022/06/27 01:56:11;;;;;;;4.95;1.90;;;;;;;19.63;72.77;95871.81;4858245;29;20053;-79
2022/06/27 01:58:37;;;;;;;2.42;1.80;;;;;;;19.63;72.97;95865.47;4858608;29;20525;-80
2022/06/27 02:01:05;;;;;;;3.75;1.95;;;;;;;19.55;73.20;95851.59;4858115;29;20057;-79
2022/06/27 02:03:31;;;;;;;3.15;1.90;;;;;;;19.53;72.96;95853.97;4858590;29;20136;-80
2022/06/27 02:05:58;;;;;;;2.67;2.00;;;;;;;19.51;72.30;95864.59;4858636;29;20057;-81
2022/06/27 02:08:27;;;;;;;4.25;1.70;;;;;;;19.40;72.13;95868.50;4857938;29;20441;-79
2022/06/27 02:10:54;;;;;;;2.95;1.92;;;;;;;19.35;73.19;95875.16;4858412;29;20061;-79
2022/06/27 02:13:22;;;;;;;2.15;1.80;;;;;;;19.38;74.15;95874.41;4857962;29;20053;-79
2022/06/27 02:16:11;;;;;;;3.60;1.92;;;;;;;19.36;73.98;95873.97;4858392;29;20501;-80
2022/06/27 02:18:39;;;;;;;2.65;1.95;;;;;;;19.32;73.69;95880.69;4858285;29;20049;-79
2022/06/27 02:21:07;;;;;;;2.13;1.75;;;;;;;19.24;74.11;95880.63;4857529;29;20058;-79
2022/06/27 02:23:33;;;;;;;2.38;1.60;;;;;;;19.26;74.53;95878.28;4857508;29;20056;-79
2022/06/27 02:26:01;;;;;;;3.92;2.00;;;;;;;19.22;74.23;95879.44;4858616;29;20053;-79
2022/06/27 02:28:30;;;;;;;4.65;2.08;;;;;;;19.22;74.92;95883.00;4858585;29;20045;-79
2022/06/27 02:30:57;;;;;;;5.75;2.28;;;;;;;19.21;74.66;95889.69;4858719;29;20060;-78
2022/06/27 02:33:23;;;;;;;2.70;2.10;;;;;;;19.18;75.20;95886.91;4858142;29;20049;-79
2022/06/27 02:35:52;;;;;;;2.80;2.10;;;;;;;19.16;74.77;95894.75;4858391;29;20056;-79
2022/06/27 02:38:20;;;;;;;3.33;2.13;;;;;;;19.06;75.25;95888.03;4858193;29;20054;-79
2022/06/27 02:40:47;;;;;;;4.30;2.30;;;;;;;19.02;75.43;95888.00;4858751;29;20060;-79
2022/06/27 02:43:16;;;;;;;2.70;2.08;;;;;;;19.01;75.33;95880.09;4857816;29;20057;-79
2022/06/27 02:45:45;;;;;;;4.10;2.25;;;;;;;18.95;75.37;95882.44;4858251;29;20050;-79
2022/06/27 02:48:13;;;;;;;4.10;2.40;;;;;;;18.96;75.01;95889.53;4857910;29;20081;-80
2022/06/27 02:50:42;;;;;;;2.33;1.70;;;;;;;19.01;74.94;95894.69;4858381;29;20049;-80
2022/06/27 02:53:12;;;;;;;4.07;2.10;;;;;;;19.11;75.42;95911.72;4856651;29;20041;-79
2022/06/27 02:55:41;;;;;;;4.63;2.15;;;;;;;18.73;76.29;96057.19;4858067;29;20042;-78
2022/06/27 02:58:10;;;;;;;4.32;2.22;;;;;;;18.13;78.02;95925.00;4857894;29;20057;-78
2022/06/27 03:00:40;;;;;;;4.30;2.33;;;;;;;18.14;78.86;96064.34;4858227;29;20086;-78
2022/06/27 03:03:13;;;;;;;3.35;2.08;;;;;;;17.95;79.44;95997.19;4857247;29;20054;-79
2022/06/27 03:05:55;;;;;;;5.45;2.33;;;;;;;17.98;79.04;96051.53;4857705;29;20455;-80
2022/06/27 03:08:21;;;;;;;3.17;2.30;;;;;;;18.13;79.24;95988.38;4857383;29;20457;-78
2022/06/27 03:10:48;;;;;;;4.32;2.00;;;;;;;18.11;78.88;95960.38;4858135;29;20053;-79
2022/06/27 03:13:14;;;;;;;5.93;2.10;;;;;;;18.09;78.93;96050.91;4857369;29;20041;-80
2022/06/27 03:15:41;;;;;;;5.72;2.30;;;;;;;18.06;79.51;95944.19;4857518;29;20113;-79
2022/06/27 03:18:13;;;;;;;3.90;1.90;;;;;;;18.10;78.97;96016.66;4857451;29;20049;-78
2022/06/27 03:20:39;;;;;;;4.13;2.20;;;;;;;17.96;80.05;95963.00;4857859;29;20501;-80
2022/06/27 03:23:06;;;;;;;3.55;2.35;;;;;;;18.06;79.16;95986.31;4856205;29;20058;-79
2022/06/27 03:25:32;;;;;;;3.90;2.08;;;;;;;18.20;78.72;95999.47;4857908;29;20047;-79
2022/06/27 03:27:59;;;;;;;3.40;2.30;;;;;;;18.30;78.50;96009.03;4857616;29;20054;-79
2022/06/27 03:30:25;;;;;;;3.35;1.90;;;;;;;18.39;78.56;96004.81;4857318;29;20106;-79
2022/06/27 03:32:52;;;;;;;3.92;2.20;;;;;;;18.47;78.68;96003.69;4857462;29;20049;-77
2022/06/27 03:35:20;;;;;;;3.35;2.25;;;;;;;18.44;77.91;96011.97;4857127;29;20057;-80
2022/06/27 03:37:46;;;;;;;5.03;2.30;;;;;;;18.44;77.96;96018.25;4857375;29;20053;-79
2022/06/27 03:40:13;;;;;;;2.92;1.98;;;;;;;18.48;77.56;96010.03;4857286;29;20061;-78
2022/06/27 03:42:40;;;;;;;3.42;1.98;;;;;;;18.56;77.65;96013.66;4857445;29;20129;-78
2022/06/27 03:45:07;;;;;;;3.35;2.10;;;;;;;18.62;77.87;96009.38;4857085;29;20049;-78
2022/06/27 03:47:45;;;;;;;3.35;2.20;;;;;;;18.62;77.19;96017.66;4857317;29;20046;-79
2022/06/27 03:50:13;;;;;;;4.20;2.20;;;;;;;18.60;77.01;96003.47;4857054;29;20050;-79
2022/06/27 03:52:40;;;;;;;3.53;1.95;;;;;;;18.60;76.98;96000.69;4856906;29;20050;-79
2022/06/27 03:55:08;;;;;;;3.17;2.03;;;;;;;18.65;77.16;96012.19;4856895;29;20050;-78
2022/06/27 03:57:35;;;;;;;2.20;1.90;;;;;;;18.58;77.03;96012.09;4857595;29;20049;-79
2022/06/27 04:00:03;;;;;;;4.68;2.30;;;;;;;18.56;77.20;96010.88;4856952;29;20413;-77
2022/06/27 04:02:30;;;;;;;3.45;2.20;;;;;;;18.60;77.81;96014.50;4857350;29;20045;-79
2022/06/27 04:04:56;;;;;;;4.80;2.20;;;;;;;18.55;77.80;96014.81;4857284;29;20730;-78
2022/06/27 04:07:23;;;;;;;5.82;2.22;;;;;;;18.56;78.34;96027.44;4856743;29;20587;-78
2022/06/27 04:09:51;;;;;;;4.60;2.15;;;;;;;18.59;77.42;96026.69;4859447;29;20045;-77
2022/06/27 04:12:17;;;;;;;5.50;2.67;;;;;;;18.48;77.47;96035.66;4859199;29;20046;-78
2022/06/27 04:14:44;;;;;;;4.43;2.58;;;;;;;18.34;78.16;96024.44;4859222;29;20056;-77
2022/06/27 04:17:10;;;;;;;5.30;2.50;;;;;;;18.23;78.48;96029.81;4861941;29;20053;-78
2022/06/27 04:19:37;;;;;;;3.08;2.22;;;;;;;18.22;78.50;96024.69;4861724;29;20042;-79
2022/06/27 04:22:04;;;;;;;6.18;2.70;;;;;;;18.06;79.12;96026.84;4861061;29;20054;-78
2022/06/27 04:24:31;;;;;;;7.50;2.80;;;;;;;18.03;79.43;96027.59;4860454;29;20045;-79
2022/06/27 04:26:59;;;;;;;8.07;3.00;;;;;;;17.85;80.30;96022.63;4860951;29;20053;-78
2022/06/27 04:29:26;;;;;;;4.15;2.50;;;;;;;17.77;80.78;96018.22;4860683;29;20052;-80
2022/06/27 04:31:53;;;;;;;6.05;2.72;;;;;;;17.92;80.41;96017.22;4860953;29;20510;-78
2022/06/27 04:34:19;;;;;;;5.22;2.50;;;;;;;18.05;79.93;96022.50;4860475;29;20429;-77
2022/06/27 04:36:46;;;;;;;3.83;2.67;;;;;;;18.20;79.45;96024.25;4860805;29;20069;-78
2022/06/27 04:39:15;;;;;;;5.22;2.60;;;;;;;18.29;79.34;96024.78;4860363;29;20416;-78
2022/06/27 04:41:42;;;;;;;4.55;2.22;;;;;;;18.41;79.28;96024.50;4860762;29;20064;-77
2022/06/27 04:44:11;;;;;;;3.47;2.42;;;;;;;18.35;78.70;96026.03;4860042;29;20109;-80
2022/06/27 04:46:37;;;;;;;3.60;2.20;;;;;;;18.37;78.77;96023.66;4860551;29;20577;-78
2022/06/27 04:49:04;;;;;;;5.00;2.30;;;;;;;18.16;79.56;96023.41;4859817;29;20502;-77
2022/06/27 04:51:31;;;;;;;4.15;2.05;;;;;;;18.17;79.87;96025.03;4860197;29;20057;-79
2022/06/27 04:53:58;;;;;;;5.05;2.28;;;;;;;18.08;80.45;96032.78;4859331;29;20064;-78
2022/06/27 04:56:25;;;;;;;3.00;2.40;;;;;;;17.89;82.13;96040.00;4859668;29;20105;-79
2022/06/27 04:58:51;;;;;;;4.78;2.28;;;;;;;17.93;82.55;96043.59;4859658;29;20555;-77
2022/06/27 05:01:19;;;;;;;3.35;2.10;;;;;;;17.97;82.26;96043.66;4859712;29;20052;-78
2022/06/27 05:03:46;;;;;;;5.90;2.30;;;;;;;17.96;82.60;96047.59;4859769;29;20049;-78
2022/06/27 05:06:12;;;;;;;3.55;2.10;;;;;;;18.16;82.33;96043.50;4859192;29;20417;-77
2022/06/27 05:08:39;;;;;;;3.45;2.13;;;;;;;18.33;81.86;96044.91;4859665;29;20769;-76
2022/06/27 05:11:06;;;;;;;3.47;2.08;;;;;;;18.28;82.93;96053.50;4859207;29;20060;-78
2022/06/27 05:13:33;;;;;;;3.75;2.00;;;;;;;18.38;82.27;96055.59;4859526;29;20072;-76
2022/06/27 05:15:59;;;;;;;4.22;2.10;;;;;;;18.57;81.71;96053.84;4859773;29;20064;-78
2022/06/27 05:18:27;;;;;;;2.85;2.30;;;;;;;18.68;81.62;96044.53;4859904;29;20049;-77
2022/06/27 05:20:54;;;;;;;2.85;2.15;;;;;;;18.71;80.73;96046.53;4859389;29;20061;-77
2022/06/27 05:23:20;;;;;;;2.63;2.00;;;;;;;18.90;80.88;96040.03;4858342;29;20072;-78
2022/06/27 05:25:47;;;;;;;4.47;2.08;;;;;;;19.03;80.94;96035.81;4855400;29;20746;-78
2022/06/27 05:28:13;;;;;;;5.40;2.20;;;;;;;19.18;80.28;96033.19;4854124;29;20072;-79
2022/06/27 05:30:40;;;;;;;4.38;2.40;;;;;;;19.26;78.40;96032.06;4854964;29;20517;-77
2022/06/27 05:33:06;;;;;;;3.97;2.28;;;;;;;19.33;77.24;96040.41;4854954;29;20058;-76
2022/06/27 05:35:35;;;;;;;3.80;2.20;;;;;;;19.45;77.49;96042.88;4855174;29;20049;-79
2022/06/27 05:38:01;;;;;;;3.35;2.20;;;;;;;19.54;77.71;96054.38;4854450;29;20425;-76
2022/06/27 05:40:28;;;;;;;4.55;2.90;;;;;;;19.54;77.70;96048.88;4855194;29;20049;-80
2022/06/27 05:42:57;;;;;;;5.00;2.38;;;;;;;19.68;77.06;96050.16;4854545;29;20109;-80
2022/06/27 05:45:24;;;;;;;4.97;2.00;;;;;;;19.76;76.71;96063.63;4853470;29;20076;-78
2022/06/27 05:47:59;;;;;;;4.18;2.38;;;;;;;19.92;74.98;96066.09;4854405;29;20518;-79
2022/06/27 05:50:26;;;;;;;2.95;2.30;;;;;;;20.00;74.95;96055.91;4855790;29;20430;-80
2022/06/27 05:52:56;;;;;;;3.85;2.20;;;;;;;20.06;73.36;96059.88;4858191;29;20065;-79
2022/06/27 05:55:23;;;;;;;2.95;2.35;;;;;;;20.14;73.39;96074.53;4856816;29;20121;-81
2022/06/27 05:57:49;;;;;;;2.25;1.90;;;;;;;20.24;74.19;96073.78;4860883;29;20064;-79
2022/06/27 06:00:17;;;;;;;7.10;2.80;;;;;;;20.18;73.15;96078.09;4863393;29;20054;-78
2022/06/27 06:02:43;;;;;;;3.75;2.50;;;;;;;20.23;73.78;96080.50;4865514;29;20332;-81
2022/06/27 06:05:11;;;;;;;3.13;2.22;;;;;;;20.22;74.43;96087.22;4858126;29;20421;-80
2022/06/27 06:07:38;;;;;;;6.20;2.60;;;;;;;20.33;74.33;96086.09;4863196;29;20105;-78
2022/06/27 06:10:07;;;;;;;5.50;2.20;;;;;;;20.47;74.15;96085.41;4864129;29;20056;-81
2022/06/27 06:12:34;;;;;;;2.90;2.33;;;;;;;20.40;72.13;96084.53;4865200;29;20099;-81
2022/06/27 06:15:02;;;;;;;2.65;2.10;;;;;;;20.43;72.57;96081.78;4861839;29;20057;-80
2022/06/27 06:17:29;;;;;;;4.40;2.45;;;;;;;20.56;72.12;96087.78;4861445;29;20037;-79
2022/06/27 06:19:55;;;;;;;2.47;2.28;;;;;;;20.56;71.40;96082.25;4862686;29;20056;-82
2022/06/27 06:22:23;;;;;;;3.85;2.25;;;;;;;20.70;72.54;96075.97;4860960;29;20061;-81
2022/06/27 06:24:50;;;;;;;3.40;2.25;;;;;;;20.75;70.98;96072.84;4864024;29;20051;-80
2022/06/27 06:27:18;;;;;;;5.55;2.75;;;;;;;20.77;70.38;96081.53;4862153;29;20053;-81
2022/06/27 06:29:44;;;;;;;3.13;2.75;;;;;;;20.81;69.90;96082.34;4860880;29;20103;-81
2022/06/27 06:32:11;;;;;;;2.67;1.90;;;;;;;20.78;69.63;96088.66;4861525;29;20060;-80
2022/06/27 06:34:38;;;;;;;2.95;2.30;;;;;;;20.84;70.52;96092.63;4861520;29;20049;-80
2022/06/27 06:37:06;;;;;;;6.97;2.40;;;;;;;20.84;70.15;96081.56;4862610;29;20202;-80
2022/06/27 06:39:35;;;;;;;3.00;2.20;;;;;;;20.91;70.46;96076.03;4862796;29;20136;-81
2022/06/27 06:42:02;;;;;;;4.05;2.58;;;;;;;20.82;69.84;96075.63;4862717;29;20536;-80
2022/06/27 06:44:30;;;;;;;3.65;2.50;;;;;;;20.94;68.88;96066.97;4860667;29;20056;-82
2022/06/27 06:46:57;;;;;;;3.95;2.70;;;;;;;20.93;71.69;96070.88;4861399;29;20056;-80
2022/06/27 06:49:24;;;;;;;4.72;2.92;;;;;;;20.95;71.07;96065.78;4862030;29;20109;-80
2022/06/27 06:51:51;;;;;;;3.75;2.53;;;;;;;21.11;70.96;96080.03;4862720;29;20137;-80
2022/06/27 06:54:20;;;;;;;3.08;2.45;;;;;;;21.20;69.75;96076.91;4860543;29;20151;-80
2022/06/27 06:56:49;;;;;;;4.50;2.83;;;;;;;21.29;68.28;96073.72;4862564;29;20133;-80
2022/06/27 06:59:17;;;;;;;6.10;2.63;;;;;;;21.30;67.88;96076.16;4861115;29;20060;-80
2022/06/27 07:01:46;;;;;;;4.78;2.80;;;;;;;21.40;68.43;96068.22;4861812;29;20673;-80
2022/06/27 07:04:16;;;;;;;3.30;2.50;;;;;;;21.48;69.40;96069.81;4861548;29;20046;-79
2022/06/27 07:06:44;;;;;;;3.85;2.70;;;;;;;21.51;68.10;96069.03;4861000;29;20094;-82
2022/06/27 07:09:10;;;;;;;3.28;2.80;;;;;;;21.61;68.57;96062.66;4861883;29;20057;-81
2022/06/27 07:11:37;;;;;;;4.00;2.80;;;;;;;21.69;67.61;96058.72;4861086;29;20053;-81
2022/06/27 07:14:04;;;;;;;5.03;2.97;;;;;;;21.63;66.24;96060.31;4862841;29;20109;-80
2022/06/27 07:16:31;;;;;;;3.30;2.47;;;;;;;21.69;66.76;96057.94;4861071;29;20056;-81
2022/06/27 07:19:00;;;;;;;5.30;3.08;;;;;;;21.62;67.52;96055.97;4861064;29;20050;-80
2022/06/27 07:21:28;;;;;;;4.93;2.60;;;;;;;21.81;67.64;96057.50;4859490;29;20558;-81
2022/06/27 07:23:56;;;;;;;5.47;3.00;;;;;;;21.84;68.67;96053.94;4860307;29;20073;-80
2022/06/27 07:26:23;;;;;;;3.28;2.67;;;;;;;21.95;69.05;96054.72;4861790;29;20052;-82
2022/06/27 07:28:51;;;;;;;5.57;3.10;;;;;;;21.93;69.22;96046.03;4862729;29;20050;-80
2022/06/27 07:31:19;;;;;;;4.63;2.80;;;;;;;22.14;68.95;96048.78;4859940;29;20068;-80
2022/06/27 07:33:48;;;;;;;5.10;2.90;;;;;;;22.26;67.27;96041.19;4860820;29;20045;-80
2022/06/27 07:36:18;;;;;;;4.40;2.63;;;;;;;22.35;66.56;96045.13;4859911;29;20048;-79
2022/06/27 07:38:47;;;;;;;5.65;2.83;;;;;;;22.47;65.43;96046.66;4861623;29;20049;-80
2022/06/27 07:41:16;;;;;;;4.05;2.63;;;;;;;22.57;68.04;96045.03;4861471;29;20050;-79
2022/06/27 07:43:44;;;;;;;4.80;2.65;;;;;;;22.63;67.65;96046.97;4861670;29;20045;-80
2022/06/27 07:46:12;;;;;;;8.73;3.20;;;;;;;22.67;64.90;96039.44;4860770;29;20050;-81
2022/06/27 07:48:40;;;;;;;3.67;2.88;;;;;;;22.74;64.03;96043.38;4861771;29;20463;-82
2022/06/27 07:51:06;;;;;;;4.88;2.90;;;;;;;22.71;63.52;96046.94;4864291;29;20079;-82
2022/06/27 07:53:35;;;;;;;3.60;3.00;;;;;;;22.71;65.29;96047.75;4864871;29;20121;-79
2022/06/27 07:56:06;;;;;;;8.77;3.10;;;;;;;22.74;63.34;96052.47;4863561;29;20637;-79
2022/06/27 07:58:35;;;;;;;3.85;3.08;;;;;;;22.78;63.39;96049.69;4863594;29;20056;-80
2022/06/27 08:01:04;;;;;;;3.92;2.88;;;;;;;22.77;61.98;96059.22;4867011;29;20060;-79
2022/06/27 08:03:39;;;;;;;4.85;2.75;;;;;;;22.85;65.07;96055.19;4863472;29;20102;-81
2022/06/27 08:06:08;;;;;;;4.00;3.13;;;;;;;22.94;64.23;96052.81;4867664;29;20129;-82
2022/06/27 08:08:39;;;;;;;9.38;3.30;;;;;;;23.08;66.02;96051.94;4866635;29;20060;-81
2022/06/27 08:11:08;;;;;;;6.35;3.05;;;;;;;23.30;64.44;96060.91;4865043;29;20049;-81
2022/06/27 08:13:36;;;;;;;4.28;2.90;;;;;;;23.46;64.31;96060.38;4866041;29;20073;-81
2022/06/27 08:16:04;;;;;;;4.80;3.33;;;;;;;23.57;62.25;96061.09;4865165;29;20046;-81
2022/06/27 08:18:35;;;;;;;3.53;2.60;;;;;;;24.07;60.85;96064.22;4861690;29;20053;-81
2022/06/27 08:21:02;;;;;;;4.38;3.15;;;;;;;24.26;59.35;96062.03;4875835;29;20077;-80
2022/06/27 08:23:31;;;;;;;3.35;2.90;;;;;;;24.52;60.30;96072.47;4865969;29;20077;-83
2022/06/27 08:25:59;;;;;;;3.67;2.60;;;;;;;24.65;58.96;96072.75;4870310;29;20050;-81
2022/06/27 08:28:26;;;;;;;2.72;2.40;;;;;;;24.90;59.89;96077.97;4866459;29;20056;-81
2022/06/27 08:30:54;;;;;;;4.47;2.80;;;;;;;25.21;62.96;96079.56;4865952;29;20045;-82
2022/06/27 08:33:23;;;;;;;5.32;2.80;;;;;;;25.28;63.67;96078.66;4861473;29;20558;-81
2022/06/27 08:35:51;;;;;;;3.65;2.80;;;;;;;25.46;59.82;96068.03;4878237;29;20041;-81
2022/06/27 08:38:19;;;;;;;2.80;2.35;;;;;;;25.70;58.73;96068.06;4857046;29;20046;-82
2022/06/27 08:40:48;;;;;;;10.07;2.50;;;;;;;25.81;59.34;96073.47;4867601;29;20133;-81
2022/06/27 08:43:19;;;;;;;4.28;2.80;;;;;;;25.97;62.52;96073.59;4857579;29;20049;-81
2022/06/27 08:45:47;;;;;;;4.13;2.78;;;;;;;26.16;59.43;96070.06;4881604;29;20056;-81
2022/06/27 08:48:14;;;;;;;6.95;2.60;;;;;;;26.40;62.26;96064.41;4869308;29;20118;-80
2022/06/27 08:50:42;;;;;;;4.20;2.33;;;;;;;26.47;55.83;96061.53;4864147;29;20064;-80
2022/06/27 08:53:12;;;;;;;4.60;2.72;;;;;;;26.34;53.92;96057.75;4866654;29;20094;-80
2022/06/27 08:55:43;;;;;;;3.03;2.40;;;;;;;26.26;53.92;96052.31;4913471;23;20048;-81
2022/06/27 08:58:10;;;;;;;4.20;2.65;;;;;;;26.21;55.11;96052.03;4907148;29;20055;-81
2022/06/27 09:00:40;;;;;;;3.13;2.35;;;;;;;26.23;57.74;96050.38;4904983;29;20083;-80
2022/06/27 09:03:11;;;;;;;6.15;2.90;;;;;;;26.17;54.65;96057.69;4892417;29;20504;-80
2022/06/27 09:05:41;;;;;;;4.43;2.25;;;;;;;26.14;55.05;96052.94;4910186;29;20056;-82
2022/06/27 09:08:09;;;;;;;5.22;2.40;;;;;;;26.17;56.79;96054.88;4904351;29;20051;-79
2022/06/27 09:10:37;;;;;;;3.78;2.35;;;;;;;26.22;55.94;96054.41;4903951;29;20063;-80
2022/06/27 09:13:06;;;;;;;5.13;2.80;;;;;;;26.42;61.79;96054.44;4893281;29;20139;-79
2022/06/27 09:15:55;;;;;;;6.07;2.70;;;;;;;26.43;54.79;96046.84;4904399;29;20054;-81
2022/06/27 09:18:26;;;;;;;4.03;2.53;;;;;;;26.66;60.76;96054.34;4908068;29;20167;-82
2022/06/27 09:20:57;;;;;;;5.15;2.20;;;;;;;26.74;56.22;96055.78;4908648;29;20048;-82
2022/06/27 09:23:29;;;;;;;3.80;2.45;;;;;;;26.71;57.03;96051.84;4894266;29;20108;-80
2022/06/27 09:26:01;;;;;;;3.20;2.33;;;;;;;26.78;57.84;96048.91;4905417;29;20045;-81
2022/06/27 09:28:46;;;;;;;5.35;2.90;;;;;;;26.85;59.80;96039.59;4873784;29;20051;-81
2022/06/27 09:31:32;;;;;;;2.50;2.30;;;;;;;27.16;59.08;96042.91;4909293;29;20108;-80
2022/06/27 09:34:08;;;;;;;4.15;2.40;;;;;;;27.10;54.96;96041.06;4910775;29;20055;-82
2022/06/27 09:36:36;;;;;;;4.82;2.60;;;;;;;27.29;56.13;96034.63;4910746;29;20044;-83
2022/06/27 09:39:10;;;;;;;6.07;2.70;;;;;;;27.47;56.57;96040.59;4913929;23;20059;-80
2022/06/27 09:41:40;;;;;;;3.80;2.60;;;;;;;27.52;52.61;96042.06;4936413;23;20045;-80
2022/06/27 09:44:15;;;;;;;7.30;2.88;;;;;;;27.43;54.54;96044.69;4896709;29;20108;-81
2022/06/27 09:46:49;;;;;;;5.32;2.50;;;;;;;27.54;56.19;96034.03;4904818;29;20048;-80
2022/06/27 09:49:17;;;;;;;2.55;2.22;;;;;;;27.78;57.93;96029.84;4888728;29;20052;-82
2022/06/27 09:51:44;;;;;;;4.00;2.20;;;;;;;27.86;56.67;96015.66;4896933;29;20048;-82
2022/06/27 09:54:11;;;;;;;2.30;2.10;;;;;;;27.85;56.71;96019.69;4895999;29;20048;-81
2022/06/27 09:56:41;;;;;;;3.75;2.95;;;;;;;27.93;53.76;96023.88;4897229;29;20505;-81
2022/06/27 09:59:09;;;;;;;4.60;2.30;;;;;;;28.07;56.93;96023.50;4895981;29;20420;-82
2022/06/27 10:01:40;;;;;;;5.07;2.65;;;;;;;27.83;56.64;96026.53;4897429;29;20136;-81
2022/06/27 10:04:10;;;;;;;5.15;2.40;;;;;;;27.83;57.29;96023.72;4931063;23;20048;-81
2022/06/27 10:06:39;;;;;;;2.88;1.92;;;;;;;28.08;56.63;96033.47;4899163;29;20084;-80
2022/06/27 10:09:08;;;;;;;3.50;2.30;;;;;;;28.17;55.35;96030.81;4895996;29;20044;-83
2022/06/27 10:11:36;;;;;;;3.42;2.30;;;;;;;28.02;54.36;96024.03;4896998;29;20109;-81
2022/06/27 10:14:16;;;;;;;2.55;2.10;;;;;;;28.20;55.68;96023.56;4896462;29;20680;-80
2022/06/27 10:16:55;;;;;;;3.10;1.80;;;;;;;28.39;52.37;96019.06;4896713;29;20085;-84
2022/06/27 10:19:25;;;;;;;4.57;2.20;;;;;;;28.38;52.32;96020.28;4895846;29;20531;-83
2022/06/27 10:21:52;;;;;;;5.30;1.95;;;;;;;28.46;55.85;96030.06;4895898;29;20049;-84
2022/06/27 10:24:35;;;;;;;5.15;2.28;;;;;;;28.49;56.72;96029.16;4895736;29;20056;-82
2022/06/27 10:27:05;;;;;;;6.72;2.97;;;;;;;28.42;53.07;96030.16;4895625;29;20053;-82
2022/06/27 10:29:46;;;;;;;4.10;2.10;;;;;;;28.56;54.03;96031.78;4895886;29;20528;-83
2022/06/27 10:32:43;;;;;;;6.47;2.60;;;;;;;28.64;52.49;96030.31;4896012;29;20053;-84
2022/06/27 10:35:13;;;;;;;4.75;2.70;;;;;;;28.57;55.30;96020.13;4895465;29;20052;-83
2022/06/27 10:37:41;;;;;;;6.50;2.72;;;;;;;28.50;53.68;96023.13;4896287;29;20105;-83
2022/06/27 10:40:57;;;;;;;4.03;2.20;;;;;;;28.44;54.79;96021.31;4895758;29;20071;-83
2022/06/27 10:43:41;;;;;;;4.25;2.30;;;;;;;28.45;54.41;96022.88;4895109;29;20052;-83
2022/06/27 10:46:41;;;;;;;5.57;2.50;;;;;;;28.57;56.61;96017.31;4895435;29;20063;-82
2022/06/27 10:49:21;;;;;;;5.45;2.47;;;;;;;28.57;54.16;96022.94;4879156;29;20052;-83
2022/06/27 10:51:49;;;;;;;6.75;2.22;;;;;;;28.75;50.91;96011.19;4896003;29;20075;-84
2022/06/27 10:54:17;;;;;;;4.68;2.42;;;;;;;28.74;53.25;96012.41;4894786;29;20059;-85
2022/06/27 10:56:44;;;;;;;4.32;1.90;;;;;;;28.74;53.54;96004.00;4895621;29;20109;-84
2022/06/27 11:00:00;;;;;;;4.85;2.22;;;;;;;28.70;52.43;96010.94;4879217;29;20055;-84
2022/06/27 11:02:31;;;;;;;2.83;2.17;;;;;;;28.84;54.92;96008.50;4895445;29;21519;-85
2022/06/27 11:04:58;;;;;;;7.35;2.55;;;;;;;28.50;56.55;96009.09;4895745;29;20053;-82
2022/06/27 11:07:26;;;;;;;4.50;2.33;;;;;;;28.73;55.08;96012.88;4879049;29;20047;-85
2022/06/27 11:09:53;;;;;;;3.05;2.40;;;;;;;28.82;54.55;96001.81;4879102;29;20071;-84
2022/06/27 11:12:27;;;;;;;4.25;2.40;;;;;;;28.78;54.27;96001.91;4895478;29;20059;-84
2022/06/27 11:14:56;;;;;;;2.88;2.33;;;;;;;28.93;57.41;96001.47;4895879;29;20045;-84
2022/06/27 11:17:30;;;;;;;2.92;2.10;;;;;;;29.04;54.12;96007.56;4895223;29;20052;-84
2022/06/27 11:20:12;;;;;;;4.72;2.50;;;;;;;28.82;53.90;96008.19;4895923;29;20413;-84
2022/06/27 11:22:40;;;;;;;5.55;2.50;;;;;;;28.73;53.62;96005.25;4894431;29;20444;-84
2022/06/27 11:25:07;;;;;;;5.43;2.60;;;;;;;28.64;57.04;96004.34;4896047;29;20420;-82
2022/06/27 11:27:51;;;;;;;3.97;2.58;;;;;;;28.77;53.14;96005.94;4899633;29;20750;-84
2022/06/27 11:33:25;;;;;;;2.55;2.13;;;;;;;28.95;52.01;96013.81;4899124;29;20095;-85
2022/06/27 11:35:53;;;;;;;5.43;2.47;;;;;;;28.89;51.59;96012.00;4899577;29;20515;-84
2022/06/27 11:38:24;;;;;;;4.13;2.22;;;;;;;28.92;54.57;96005.47;4899104;29;20056;-84
2022/06/27 11:41:08;;;;;;;2.30;2.00;;;;;;;28.99;53.54;96016.53;4899367;29;20048;-83
2022/06/27 11:43:52;;;;;;;2.83;2.33;;;;;;;28.77;54.03;96011.53;4899050;29;20045;-83
2022/06/27 11:46:26;;;;;;;4.80;2.35;;;;;;;28.69;54.13;96006.59;4898764;29;20041;-83
2022/06/27 11:48:57;;;;;;;7.85;2.13;;;;;;;28.66;50.95;95999.88;4899182;29;20047;-82